Time;durP1;ratioP1;P1;durP2;ratioP2;P2;SDS_P1;SDS_P2;PMS_P1;PMS_P2;Temp;Humidity;BMP_temperature;BMP_pressure;BME280_temperature;BME280_humidity;BME280_pressure;Samples;Min_cycle;Max_cycle;Signal;HPM_P1;HPM_P2
2024/01/27 00:01:35;;;;;;;33.45;5.22;;;5.10;99.90;;;;;;5078866;28;20186;-43
2024/01/27 00:04:02;;;;;;;39.65;6.13;;;5.10;99.90;;;;;;5078974;28;20182;-39
2024/01/27 00:06:28;;;;;;;31.30;5.20;;;5.10;99.90;;;;;;5079833;28;20206;-47
2024/01/27 00:08:54;;;;;;;35.70;6.38;;;5.10;99.90;;;;;;5080097;28;20347;-42
2024/01/27 00:11:20;;;;;;;32.42;6.97;;;5.10;99.90;;;;;;5080171;28;20238;-40
2024/01/27 00:13:46;;;;;;;35.63;5.63;;;5.10;99.90;;;;;;5078393;28;20599;-41
2024/01/27 00:16:12;;;;;;;38.88;6.68;;;5.10;99.90;;;;;;5079091;28;20231;-38
2024/01/27 00:18:38;;;;;;;34.00;6.53;;;5.10;99.90;;;;;;5083279;28;20274;-39
2024/01/27 00:21:06;;;;;;;34.08;5.78;;;5.00;99.90;;;;;;5083851;28;20189;-42
2024/01/27 00:23:32;;;;;;;34.05;5.50;;;5.00;99.90;;;;;;5084157;28;20281;-42
2024/01/27 00:25:58;;;;;;;37.70;5.63;;;5.00;99.90;;;;;;5065385;28;20255;-46
2024/01/27 00:28:24;;;;;;;33.92;5.20;;;5.00;99.90;;;;;;5082499;28;20215;-43
2024/01/27 00:30:50;;;;;;;29.35;4.95;;;5.00;99.90;;;;;;5083571;28;20217;-43
2024/01/27 00:33:16;;;;;;;29.20;5.32;;;5.00;99.90;;;;;;5082491;28;20190;-40
2024/01/27 00:35:43;;;;;;;40.95;5.97;;;4.90;99.90;;;;;;5084077;28;20607;-41
2024/01/27 00:38:09;;;;;;;41.05;6.28;;;4.90;99.90;;;;;;5083489;28;20684;-37
2024/01/27 00:40:35;;;;;;;39.88;7.40;;;4.90;99.90;;;;;;5083483;28;20668;-46
2024/01/27 00:43:03;;;;;;;34.22;6.45;;;4.90;99.90;;;;;;5083208;28;20194;-41
2024/01/27 00:45:30;;;;;;;31.15;5.80;;;4.90;99.90;;;;;;5083259;28;20635;-40
2024/01/27 00:47:59;;;;;;;28.17;5.85;;;4.90;99.90;;;;;;5083611;28;20276;-44
2024/01/27 00:50:25;;;;;;;47.80;5.97;;;4.90;99.90;;;;;;5082948;28;20391;-43
2024/01/27 00:52:51;;;;;;;34.50;5.10;;;4.80;99.90;;;;;;5083903;28;20518;-39
2024/01/27 00:55:19;;;;;;;33.13;5.90;;;4.80;99.90;;;;;;5083046;28;20663;-45
2024/01/27 00:57:45;;;;;;;45.00;6.78;;;4.80;99.90;;;;;;5082996;28;20185;-37
2024/01/27 01:00:12;;;;;;;41.80;6.72;;;4.80;99.90;;;;;;5081812;28;20198;-44
2024/01/27 01:02:38;;;;;;;45.13;7.57;;;4.70;99.90;;;;;;5064981;28;20231;-42
2024/01/27 01:05:05;;;;;;;41.08;7.35;;;4.70;99.90;;;;;;5082514;28;20190;-42
2024/01/27 01:07:31;;;;;;;34.70;6.38;;;4.70;99.90;;;;;;5083082;28;20208;-43
2024/01/27 01:09:57;;;;;;;44.95;7.32;;;4.70;99.90;;;;;;5083129;28;20299;-43
2024/01/27 01:12:25;;;;;;;52.35;8.20;;;4.70;99.90;;;;;;5083067;28;20174;-42
2024/01/27 01:14:51;;;;;;;35.60;6.65;;;4.60;99.90;;;;;;5081333;28;20251;-39
2024/01/27 01:17:17;;;;;;;46.22;7.65;;;4.60;99.90;;;;;;5083124;28;20646;-41
2024/01/27 01:19:43;;;;;;;37.15;7.38;;;4.60;99.90;;;;;;5081030;28;20200;-41
2024/01/27 01:22:09;;;;;;;49.83;7.45;;;4.60;99.90;;;;;;5082706;28;20563;-44
2024/01/27 01:24:35;;;;;;;39.42;7.07;;;4.60;99.90;;;;;;5081272;28;20194;-46
2024/01/27 01:27:01;;;;;;;36.00;6.40;;;4.60;99.90;;;;;;5083035;28;20190;-41
2024/01/27 01:29:27;;;;;;;32.65;5.50;;;4.60;99.90;;;;;;5080205;28;20247;-39
2024/01/27 01:31:53;;;;;;;29.48;4.97;;;4.60;99.90;;;;;;5082888;28;20204;-43
2024/01/27 01:34:19;;;;;;;39.25;6.22;;;4.70;99.90;;;;;;5082496;28;20193;-42
2024/01/27 01:36:45;;;;;;;40.15;5.85;;;4.70;99.90;;;;;;5082568;28;20186;-45
2024/01/27 01:39:15;;;;;;;43.42;6.28;;;4.70;99.90;;;;;;5080922;28;20226;-42
2024/01/27 01:41:41;;;;;;;32.63;6.18;;;4.70;99.90;;;;;;5082156;28;20224;-44
2024/01/27 01:44:07;;;;;;;39.15;6.38;;;4.70;99.90;;;;;;5082097;28;20186;-41
2024/01/27 01:46:34;;;;;;;40.58;5.65;;;4.70;99.90;;;;;;5064362;28;20229;-42
2024/01/27 01:49:00;;;;;;;33.72;4.70;;;4.70;99.90;;;;;;5080731;28;20210;-39
2024/01/27 01:51:27;;;;;;;32.50;4.82;;;4.80;99.90;;;;;;5082185;28;20277;-40
2024/01/27 01:53:58;;;;;;;29.98;5.15;;;4.70;99.90;;;;;;5082325;28;20611;-43
2024/01/27 01:56:24;;;;;;;28.50;4.95;;;4.80;99.90;;;;;;5082592;28;20278;-45
2024/01/27 01:58:50;;;;;;;32.70;5.38;;;4.80;99.90;;;;;;5081670;28;20215;-41
2024/01/27 02:01:21;;;;;;;36.28;5.43;;;4.80;99.90;;;;;;5082227;28;20782;-40
2024/01/27 02:03:57;;;;;;;39.92;5.65;;;4.80;99.90;;;;;;5081695;28;20265;-45
2024/01/27 02:06:23;;;;;;;34.60;5.78;;;4.80;99.90;;;;;;5081672;28;20225;-42
2024/01/27 02:08:49;;;;;;;44.67;5.53;;;4.80;99.90;;;;;;5081674;28;20696;-44
2024/01/27 02:11:16;;;;;;;35.70;5.85;;;4.80;99.90;;;;;;5081141;28;20259;-47
2024/01/27 02:13:42;;;;;;;37.58;5.90;;;4.80;99.90;;;;;;5080673;28;20193;-39
2024/01/27 02:16:08;;;;;;;42.28;6.18;;;4.70;99.90;;;;;;5081804;28;21045;-40
2024/01/27 02:18:34;;;;;;;29.80;4.90;;;4.70;99.90;;;;;;5080624;28;20193;-38
2024/01/27 02:21:00;;;;;;;38.42;6.07;;;4.70;99.90;;;;;;5081541;28;20588;-43
2024/01/27 02:23:26;;;;;;;35.00;5.78;;;4.70;99.90;;;;;;5081577;28;20228;-40
2024/01/27 02:25:52;;;;;;;44.42;6.70;;;4.70;99.90;;;;;;5081581;28;20233;-40
2024/01/27 02:28:18;;;;;;;30.42;6.25;;;4.70;99.90;;;;;;5081420;28;20185;-45
2024/01/27 02:30:44;;;;;;;37.85;6.60;;;4.70;99.90;;;;;;5081755;28;21021;-41
2024/01/27 02:33:10;;;;;;;30.52;5.65;;;4.60;99.90;;;;;;5080178;28;20213;-39
2024/01/27 02:35:36;;;;;;;39.30;6.03;;;4.60;99.90;;;;;;5081424;28;20255;-40
2024/01/27 02:38:02;;;;;;;31.38;5.75;;;4.60;99.90;;;;;;5063417;28;20225;-43
2024/01/27 02:40:28;;;;;;;33.38;5.75;;;4.60;99.90;;;;;;5079400;28;20220;-38
2024/01/27 02:42:54;;;;;;;27.55;4.97;;;4.60;99.90;;;;;;5080978;28;20173;-42
2024/01/27 02:45:20;;;;;;;30.92;5.13;;;4.60;99.90;;;;;;5081544;28;20181;-40
2024/01/27 02:47:46;;;;;;;34.80;5.45;;;4.60;99.90;;;;;;5081154;28;20192;-41
2024/01/27 02:50:12;;;;;;;30.73;5.97;;;4.60;99.90;;;;;;5079901;28;20210;-43
2024/01/27 02:52:38;;;;;;;33.08;5.90;;;4.60;99.90;;;;;;5081219;28;20196;-40
2024/01/27 02:55:04;;;;;;;25.02;5.75;;;4.50;99.90;;;;;;5080454;28;20186;-41
2024/01/27 02:57:31;;;;;;;46.38;5.88;;;4.50;99.90;;;;;;5080296;28;20229;-43
2024/01/27 02:59:57;;;;;;;37.80;6.18;;;4.50;99.90;;;;;;5081428;28;20645;-42
2024/01/27 03:02:23;;;;;;;38.92;5.30;;;4.50;99.90;;;;;;5079647;28;21066;-47
2024/01/27 03:04:49;;;;;;;29.67;6.38;;;4.50;99.90;;;;;;5080353;28;20379;-47
2024/01/27 03:07:15;;;;;;;34.10;6.63;;;4.40;99.90;;;;;;5081178;28;20303;-45
2024/01/27 03:09:40;;;;;;;36.40;6.72;;;4.50;99.90;;;;;;5080706;28;20212;-40
2024/01/27 03:12:07;;;;;;;35.72;5.53;;;4.40;99.90;;;;;;5081158;28;20186;-44
2024/01/27 03:14:33;;;;;;;33.33;4.85;;;4.40;99.90;;;;;;5081075;28;20281;-44
2024/01/27 03:16:59;;;;;;;34.15;5.30;;;4.40;99.90;;;;;;5081141;28;20190;-45
2024/01/27 03:19:25;;;;;;;37.33;4.88;;;4.40;99.90;;;;;;5081231;28;20186;-41
2024/01/27 03:21:51;;;;;;;34.75;6.10;;;4.40;99.90;;;;;;5080734;28;20217;-40
2024/01/27 03:24:16;;;;;;;30.90;5.82;;;4.50;99.90;;;;;;5080617;28;20189;-45
2024/01/27 03:26:42;;;;;;;27.38;4.82;;;4.40;99.90;;;;;;5079771;28;20220;-48
2024/01/27 03:29:08;;;;;;;34.63;4.85;;;4.50;99.90;;;;;;5079863;28;20190;-43
2024/01/27 03:31:34;;;;;;;29.42;4.88;;;4.50;99.90;;;;;;5081255;28;21471;-39
2024/01/27 03:34:01;;;;;;;42.63;5.63;;;4.50;99.90;;;;;;5079011;28;20186;-41
2024/01/27 03:36:27;;;;;;;35.05;5.45;;;4.50;99.90;;;;;;5080940;28;20190;-37
2024/01/27 03:38:54;;;;;;;27.60;5.00;;;4.50;99.90;;;;;;5080524;28;20267;-43
2024/01/27 03:41:20;;;;;;;30.75;4.60;;;4.50;99.90;;;;;;5080367;28;20194;-39
2024/01/27 03:43:45;;;;;;;27.15;4.28;;;4.50;99.90;;;;;;5081001;28;20239;-41
2024/01/27 03:46:11;;;;;;;31.10;4.65;;;4.50;99.90;;;;;;5078577;28;20225;-46
2024/01/27 03:48:37;;;;;;;30.15;5.28;;;4.50;99.90;;;;;;5081031;28;20185;-41
2024/01/27 03:51:03;;;;;;;23.30;4.07;;;4.50;99.90;;;;;;5078970;28;21012;-43
2024/01/27 03:53:29;;;;;;;28.15;4.28;;;4.50;99.90;;;;;;5084174;28;20302;-44
2024/01/27 03:56:02;;;;;;;29.38;4.40;;;4.50;99.90;;;;;;5082736;28;20225;-43
2024/01/27 03:58:28;;;;;;;34.30;4.53;;;4.50;99.90;;;;;;5084743;28;20275;-40
2024/01/27 04:00:54;;;;;;;31.00;4.95;;;4.50;99.90;;;;;;5084548;28;20687;-47
2024/01/27 04:03:20;;;;;;;26.33;4.55;;;4.50;99.90;;;;;;5084121;28;20202;-40
2024/01/27 04:05:46;;;;;;;20.45;3.53;;;4.50;99.90;;;;;;5082924;28;20249;-40
2024/01/27 04:08:12;;;;;;;26.75;4.20;;;4.50;99.90;;;;;;5082413;28;20186;-39
2024/01/27 04:10:38;;;;;;;25.88;4.57;;;4.50;99.90;;;;;;5084316;28;20654;-40
2024/01/27 04:13:05;;;;;;;29.00;4.80;;;4.50;99.90;;;;;;5084549;28;20194;-45
2024/01/27 04:15:38;;;;;;;31.52;4.72;;;4.50;99.90;;;;;;5084260;28;20185;-47
2024/01/27 04:18:08;;;;;;;25.80;5.05;;;4.50;99.90;;;;;;5084243;28;20182;-42
2024/01/27 04:20:35;;;;;;;33.47;5.35;;;4.50;99.90;;;;;;5084237;28;20182;-41
2024/01/27 04:23:01;;;;;;;24.60;4.45;;;4.50;99.90;;;;;;5084303;28;20235;-43
2024/01/27 04:25:27;;;;;;;25.95;5.15;;;4.50;99.90;;;;;;5082803;28;20193;-43
2024/01/27 04:27:53;;;;;;;28.50;4.88;;;4.40;99.90;;;;;;5084111;28;20193;-45
2024/01/27 04:30:19;;;;;;;31.27;5.18;;;4.50;99.90;;;;;;5083892;28;20236;-40
2024/01/27 04:32:45;;;;;;;31.33;5.72;;;4.50;99.90;;;;;;5083714;28;20312;-39
2024/01/27 04:35:11;;;;;;;27.95;4.90;;;4.40;99.90;;;;;;5083991;28;20267;-45
2024/01/27 04:37:38;;;;;;;30.15;4.97;;;4.40;99.90;;;;;;5082455;28;20182;-44
2024/01/27 04:40:07;;;;;;;24.45;4.55;;;4.40;99.90;;;;;;5084047;28;20665;-45
2024/01/27 04:42:40;;;;;;;22.38;4.72;;;4.40;99.90;;;;;;5081801;28;20209;-40
2024/01/27 04:45:07;;;;;;;24.33;4.30;;;4.40;99.90;;;;;;5082491;28;20293;-43
2024/01/27 04:47:33;;;;;;;26.73;4.72;;;4.40;99.90;;;;;;5083497;28;20327;-41
2024/01/27 04:49:59;;;;;;;33.65;4.80;;;4.40;99.90;;;;;;5083671;28;20731;-43
2024/01/27 04:52:25;;;;;;;31.23;5.28;;;4.40;99.90;;;;;;5083250;28;20200;-37
2024/01/27 04:54:51;;;;;;;32.80;5.05;;;4.40;99.90;;;;;;5082147;28;20531;-40
2024/01/27 04:57:17;;;;;;;25.63;5.03;;;4.40;99.90;;;;;;5082454;28;20223;-39
2024/01/27 04:59:43;;;;;;;25.95;4.45;;;4.40;99.90;;;;;;5083432;28;20186;-42
2024/01/27 05:02:09;;;;;;;26.02;4.63;;;4.40;99.90;;;;;;5083046;28;20201;-42
2024/01/27 05:04:36;;;;;;;32.17;4.50;;;4.30;99.90;;;;;;5082824;28;20198;-40
2024/01/27 05:07:02;;;;;;;31.58;4.50;;;4.30;99.90;;;;;;5082978;28;20196;-41
2024/01/27 05:09:28;;;;;;;20.65;4.18;;;4.30;99.90;;;;;;5081432;28;20280;-39
2024/01/27 05:11:54;;;;;;;27.05;4.68;;;4.30;99.90;;;;;;5083309;28;20622;-41
2024/01/27 05:14:20;;;;;;;33.33;5.13;;;4.30;99.90;;;;;;5083015;28;20706;-41
2024/01/27 05:16:46;;;;;;;24.90;4.40;;;4.30;99.90;;;;;;5082878;28;20196;-49
2024/01/27 05:19:11;;;;;;;25.17;4.18;;;4.30;99.90;;;;;;5083256;28;20217;-40
2024/01/27 05:21:40;;;;;;;27.05;4.25;;;4.20;99.90;;;;;;5082805;28;21173;-41
2024/01/27 05:24:06;;;;;;;28.05;4.00;;;4.30;99.90;;;;;;5082813;28;20204;-39
2024/01/27 05:26:32;;;;;;;27.27;4.32;;;4.20;99.90;;;;;;5082713;28;20186;-44
2024/01/27 05:28:58;;;;;;;29.42;4.57;;;4.30;99.90;;;;;;5082709;28;20186;-43
2024/01/27 05:31:26;;;;;;;28.67;4.22;;;4.20;99.90;;;;;;5082928;28;20587;-43
2024/01/27 05:33:52;;;;;;;29.30;4.88;;;4.20;99.90;;;;;;5082240;28;20220;-44
2024/01/27 05:36:18;;;;;;;37.67;4.88;;;4.20;99.90;;;;;;5082130;28;20178;-38
2024/01/27 05:38:44;;;;;;;25.50;4.45;;;4.20;99.90;;;;;;5082761;28;20763;-42
2024/01/27 05:41:10;;;;;;;27.38;4.45;;;4.20;99.90;;;;;;5082490;28;20217;-42
2024/01/27 05:43:35;;;;;;;27.08;4.10;;;4.20;99.90;;;;;;5082418;28;20186;-41
2024/01/27 05:46:01;;;;;;;33.05;4.85;;;4.20;99.90;;;;;;5082459;28;20182;-44
2024/01/27 05:48:27;;;;;;;28.50;4.55;;;4.20;99.90;;;;;;5081002;28;20185;-39
2024/01/27 05:51:00;;;;;;;32.78;4.78;;;4.20;99.90;;;;;;5081327;28;20210;-42
2024/01/27 05:53:27;;;;;;;29.33;4.05;;;4.20;99.90;;;;;;5081872;28;20276;-42
2024/01/27 05:55:56;;;;;;;26.02;4.85;;;4.20;99.90;;;;;;5082419;28;20182;-42
2024/01/27 05:58:22;;;;;;;26.08;4.28;;;4.10;99.90;;;;;;5082349;28;20190;-39
2024/01/27 06:00:48;;;;;;;28.85;3.92;;;4.20;99.90;;;;;;5081611;28;20201;-41
2024/01/27 06:03:15;;;;;;;26.05;3.88;;;4.10;99.90;;;;;;5082152;28;20220;-43
2024/01/27 06:05:42;;;;;;;26.00;3.65;;;4.20;99.90;;;;;;5082343;28;20185;-41
2024/01/27 06:08:08;;;;;;;27.67;3.80;;;4.10;99.90;;;;;;5081096;28;20660;-40
2024/01/27 06:10:36;;;;;;;23.73;4.50;;;4.10;99.90;;;;;;5081882;28;20205;-41
2024/01/27 06:13:03;;;;;;;30.95;3.75;;;4.10;99.90;;;;;;5082317;28;20194;-42
2024/01/27 06:15:29;;;;;;;24.05;4.00;;;4.10;99.90;;;;;;5080525;28;20559;-41
2024/01/27 06:17:55;;;;;;;27.73;4.25;;;4.10;99.90;;;;;;5082199;28;20661;-45
2024/01/27 06:20:21;;;;;;;30.33;4.15;;;4.10;99.90;;;;;;5081042;28;20188;-42
2024/01/27 06:22:47;;;;;;;26.25;4.00;;;4.10;99.90;;;;;;5081864;28;20197;-46
2024/01/27 06:25:13;;;;;;;26.45;3.75;;;4.10;99.90;;;;;;5082144;28;20699;-43
2024/01/27 06:27:41;;;;;;;29.00;3.83;;;4.10;99.90;;;;;;5081668;28;20338;-38
2024/01/27 06:30:07;;;;;;;26.20;4.03;;;4.10;99.90;;;;;;5079766;28;20213;-40
2024/01/27 06:32:33;;;;;;;39.40;4.97;;;4.10;99.90;;;;;;5081320;28;20198;-40
2024/01/27 06:34:59;;;;;;;23.60;4.05;;;4.10;99.90;;;;;;5080434;28;20193;-46
2024/01/27 06:37:25;;;;;;;23.65;3.65;;;4.10;99.90;;;;;;5081047;28;20266;-39
2024/01/27 06:39:51;;;;;;;23.27;3.72;;;4.10;99.90;;;;;;5081437;28;20253;-41
2024/01/27 06:42:16;;;;;;;28.23;4.65;;;4.10;99.90;;;;;;5081285;28;20178;-39
2024/01/27 06:44:42;;;;;;;26.38;3.97;;;4.10;99.90;;;;;;5079894;28;20243;-43
2024/01/27 06:47:08;;;;;;;36.75;4.40;;;4.10;99.90;;;;;;5079646;28;20232;-41
2024/01/27 06:49:34;;;;;;;23.17;4.90;;;4.10;99.90;;;;;;5081296;28;20305;-44
2024/01/27 06:52:00;;;;;;;25.17;4.13;;;4.10;99.90;;;;;;5080195;28;20186;-44
2024/01/27 06:54:26;;;;;;;30.00;4.07;;;4.10;99.90;;;;;;5081297;28;20205;-40
2024/01/27 06:56:52;;;;;;;24.60;3.80;;;4.10;99.90;;;;;;5081296;28;20569;-42
2024/01/27 06:59:18;;;;;;;18.40;3.72;;;4.10;99.90;;;;;;5079412;28;20201;-44
2024/01/27 07:01:50;;;;;;;31.63;4.88;;;4.10;99.90;;;;;;5081463;28;20707;-42
2024/01/27 07:04:16;;;;;;;30.60;4.53;;;4.20;99.90;;;;;;5080728;28;20258;-40
2024/01/27 07:06:41;;;;;;;27.58;4.25;;;4.20;99.90;;;;;;5080535;28;20554;-42
2024/01/27 07:09:09;;;;;;;32.72;4.53;;;4.20;99.90;;;;;;5079775;28;20190;-42
2024/01/27 07:11:35;;;;;;;28.23;4.30;;;4.20;99.90;;;;;;5077882;28;20217;-43
2024/01/27 07:14:06;;;;;;;27.40;4.35;;;4.20;99.90;;;;;;5079105;28;20243;-46
2024/01/27 07:16:33;;;;;;;27.50;3.70;;;4.20;99.90;;;;;;5079050;28;20188;-41
2024/01/27 07:18:59;;;;;;;28.08;4.68;;;4.20;99.90;;;;;;5079641;28;20541;-39
2024/01/27 07:21:26;;;;;;;19.58;4.43;;;4.20;99.90;;;;;;5079249;28;20198;-47
2024/01/27 07:23:53;;;;;;;32.28;4.32;;;4.20;99.90;;;;;;5077981;28;20189;-42
2024/01/27 07:26:19;;;;;;;38.10;5.07;;;4.20;99.90;;;;;;5079001;28;20190;-40
2024/01/27 07:28:45;;;;;;;28.13;4.32;;;4.20;99.90;;;;;;5083825;28;20192;-43
2024/01/27 07:31:12;;;;;;;26.45;4.82;;;4.20;99.90;;;;;;5083381;28;20206;-41
2024/01/27 07:33:38;;;;;;;23.35;4.47;;;4.20;99.90;;;;;;5083634;28;20549;-39
2024/01/27 07:36:04;;;;;;;30.25;4.60;;;4.20;99.90;;;;;;5082857;28;20284;-40
2024/01/27 07:38:30;;;;;;;30.02;4.70;;;4.20;99.90;;;;;;5083659;28;20263;-43
2024/01/27 07:40:56;;;;;;;24.65;4.82;;;4.30;99.90;;;;;;5083381;28;20186;-40
2024/01/27 07:43:23;;;;;;;33.75;5.05;;;4.30;99.90;;;;;;5082960;28;20212;-44
2024/01/27 07:45:49;;;;;;;29.67;4.50;;;4.30;99.90;;;;;;5082748;28;20193;-42
2024/01/27 07:48:15;;;;;;;31.02;4.75;;;4.30;99.90;;;;;;5082058;28;20197;-39
2024/01/27 07:50:45;;;;;;;22.33;4.30;;;4.30;99.90;;;;;;5081231;28;20210;-44
2024/01/27 07:53:11;;;;;;;25.13;4.68;;;4.30;99.90;;;;;;5082128;28;20273;-44
2024/01/27 07:55:37;;;;;;;26.30;4.78;;;4.30;99.90;;;;;;5083185;28;20273;-38
2024/01/27 07:58:03;;;;;;;24.42;5.00;;;4.40;99.90;;;;;;5082455;28;20186;-43
2024/01/27 08:00:29;;;;;;;27.20;5.63;;;4.40;99.90;;;;;;5081733;28;20193;-40
2024/01/27 08:02:55;;;;;;;25.70;4.55;;;4.40;99.90;;;;;;5081940;28;20259;-46
2024/01/27 08:05:21;;;;;;;37.38;5.55;;;4.40;99.90;;;;;;5082770;28;20190;-43
2024/01/27 08:07:46;;;;;;;26.45;5.03;;;4.40;99.90;;;;;;5082717;28;20571;-45
2024/01/27 08:10:12;;;;;;;30.10;5.00;;;4.50;99.90;;;;;;5082022;28;20650;-41
2024/01/27 08:12:38;;;;;;;36.13;5.40;;;4.50;99.90;;;;;;5081131;28;20186;-43
2024/01/27 08:15:05;;;;;;;28.38;4.97;;;4.50;99.90;;;;;;5082806;28;20186;-49
2024/01/27 08:17:30;;;;;;;25.50;4.80;;;4.60;99.90;;;;;;5083068;28;20190;-41
2024/01/27 08:19:56;;;;;;;33.47;5.70;;;4.60;99.90;;;;;;5081768;28;20188;-38
2024/01/27 08:22:22;;;;;;;24.02;5.10;;;4.60;99.90;;;;;;5082184;28;20194;-41
2024/01/27 08:24:48;;;;;;;29.20;5.13;;;4.60;99.90;;;;;;5082227;28;20212;-40
2024/01/27 08:27:14;;;;;;;24.48;5.32;;;4.70;99.90;;;;;;5082109;28;20181;-45
2024/01/27 08:29:40;;;;;;;30.48;5.40;;;4.80;99.90;;;;;;5081673;28;20208;-42
2024/01/27 08:32:06;;;;;;;27.80;5.15;;;4.80;99.90;;;;;;5083080;28;20286;-44
2024/01/27 08:34:32;;;;;;;28.88;5.00;;;4.80;99.90;;;;;;5082508;28;20193;-42
2024/01/27 08:37:00;;;;;;;28.42;6.25;;;4.90;99.90;;;;;;5082473;28;20194;-39
2024/01/27 08:39:26;;;;;;;33.42;5.78;;;4.90;99.90;;;;;;5062547;28;20332;-41
2024/01/27 08:41:52;;;;;;;25.65;4.93;;;4.90;99.90;;;;;;5081165;28;20319;-38
2024/01/27 08:44:17;;;;;;;29.92;5.43;;;4.90;99.90;;;;;;5080161;28;20869;-44
2024/01/27 08:46:43;;;;;;;30.98;5.72;;;5.00;99.90;;;;;;5079204;28;20194;-45
2024/01/27 08:49:09;;;;;;;27.50;5.75;;;5.00;99.90;;;;;;5080578;28;20291;-46
2024/01/27 08:51:35;;;;;;;27.83;5.07;;;5.00;99.90;;;;;;5080451;28;20685;-43
2024/01/27 08:54:01;;;;;;;30.05;6.05;;;5.00;99.90;;;;;;5080367;28;20256;-38
2024/01/27 08:56:27;;;;;;;31.48;5.45;;;5.00;99.90;;;;;;5080579;28;20190;-37
2024/01/27 08:58:53;;;;;;;28.23;6.43;;;5.10;99.90;;;;;;5081077;28;20626;-42
2024/01/27 09:01:19;;;;;;;34.70;6.82;;;5.10;99.90;;;;;;5081097;28;20193;-44
2024/01/27 09:03:46;;;;;;;28.05;5.68;;;5.10;99.90;;;;;;5080628;28;20182;-42
2024/01/27 09:06:12;;;;;;;35.88;6.70;;;5.20;99.90;;;;;;5079828;28;20238;-46
2024/01/27 09:08:38;;;;;;;22.58;5.55;;;5.20;99.90;;;;;;5079402;28;20300;-44
2024/01/27 09:11:04;;;;;;;28.40;6.80;;;5.30;99.90;;;;;;5080623;28;20210;-43
2024/01/27 09:13:30;;;;;;;25.85;5.80;;;5.20;99.90;;;;;;5078778;28;20292;-42
2024/01/27 09:15:58;;;;;;;31.48;6.18;;;5.30;99.90;;;;;;5079435;28;20178;-40
2024/01/27 09:18:24;;;;;;;32.88;6.20;;;5.30;99.90;;;;;;5078759;28;20208;-41
2024/01/27 09:20:50;;;;;;;23.73;5.72;;;5.40;99.90;;;;;;5078204;28;20202;-43
2024/01/27 09:23:16;;;;;;;22.27;6.10;;;5.50;99.90;;;;;;5078316;28;20665;-43
2024/01/27 09:25:42;;;;;;;27.92;6.22;;;5.50;99.90;;;;;;5080591;28;20608;-46
2024/01/27 09:28:08;;;;;;;31.30;6.70;;;5.50;99.90;;;;;;5078693;28;20194;-44
2024/01/27 09:30:33;;;;;;;24.00;6.93;;;5.60;99.90;;;;;;5080519;28;20395;-41
2024/01/27 09:32:59;;;;;;;37.13;7.95;;;5.60;99.90;;;;;;5081198;28;20239;-41
2024/01/27 09:35:25;;;;;;;32.55;7.43;;;5.70;99.90;;;;;;5078731;28;20194;-40
2024/01/27 09:37:51;;;;;;;35.70;7.73;;;5.80;99.90;;;;;;5041298;28;1119960;-43
2024/01/27 09:40:17;;;;;;;29.98;7.93;;;5.80;99.90;;;;;;5080565;28;20208;-50
2024/01/27 09:42:52;;;;;;;26.80;7.63;;;5.80;99.90;;;;;;5080944;28;20201;-43
2024/01/27 09:45:20;;;;;;;27.98;7.63;;;5.90;99.90;;;;;;5080937;28;20182;-44
2024/01/27 09:47:47;;;;;;;29.40;7.47;;;5.90;99.90;;;;;;5080661;28;20193;-47
2024/01/27 09:50:15;;;;;;;28.65;7.97;;;6.00;99.90;;;;;;5078944;28;20252;-41
2024/01/27 09:52:41;;;;;;;20.65;6.70;;;6.00;99.90;;;;;;5081141;28;20186;-40
2024/01/27 09:55:07;;;;;;;32.10;7.90;;;6.10;99.90;;;;;;5081517;28;20189;-44
2024/01/27 09:57:34;;;;;;;28.23;8.32;;;6.10;99.90;;;;;;5081137;28;20277;-42
2024/01/27 10:00:01;;;;;;;34.63;7.63;;;6.20;99.90;;;;;;5080601;28;20672;-46
2024/01/27 10:02:27;;;;;;;30.33;8.30;;;6.20;99.90;;;;;;5080360;28;20209;-37
2024/01/27 10:04:54;;;;;;;25.15;7.28;;;6.30;99.90;;;;;;5080981;28;20194;-41
2024/01/27 10:07:22;;;;;;;29.85;7.82;;;6.40;99.90;;;;;;5082190;28;20208;-39
2024/01/27 10:09:51;;;;;;;30.85;8.38;;;6.40;99.90;;;;;;5080221;28;20239;-38
2024/01/27 10:12:20;;;;;;;29.13;7.75;;;6.50;99.90;;;;;;5079146;28;20273;-43
2024/01/27 10:14:48;;;;;;;22.30;7.22;;;6.50;99.90;;;;;;5080268;28;20181;-41
2024/01/27 10:17:26;;;;;;;30.88;8.23;;;6.60;99.90;;;;;;5080932;28;20268;-42
2024/01/27 10:20:05;;;;;;;28.17;7.65;;;6.60;99.90;;;;;;5080292;28;20705;-43
2024/01/27 10:22:39;;;;;;;25.58;7.68;;;6.60;99.90;;;;;;5081308;28;20205;-40
2024/01/27 10:25:06;;;;;;;28.20;7.65;;;6.70;99.90;;;;;;5081734;28;20197;-44
2024/01/27 10:27:32;;;;;;;30.23;7.95;;;6.80;99.90;;;;;;5081715;28;20238;-45
2024/01/27 10:29:57;;;;;;;33.75;7.57;;;6.80;99.90;;;;;;5077823;28;20629;-43
2024/01/27 10:32:23;;;;;;;30.55;7.90;;;6.90;99.90;;;;;;5079989;28;20193;-44
2024/01/27 10:35:10;;;;;;;35.95;7.68;;;6.90;99.90;;;;;;5081657;28;20209;-41
2024/01/27 10:37:36;;;;;;;26.05;7.40;;;7.00;99.90;;;;;;5066455;28;20194;-40
2024/01/27 10:40:12;;;;;;;35.28;8.00;;;7.00;99.90;;;;;;5079083;28;20382;-40
2024/01/27 10:42:38;;;;;;;30.27;8.00;;;7.10;99.90;;;;;;5079682;28;20192;-41
2024/01/27 10:45:05;;;;;;;35.90;7.75;;;7.10;99.90;;;;;;5081030;28;20198;-41
2024/01/27 10:47:32;;;;;;;27.08;7.50;;;7.10;99.90;;;;;;5081166;28;20201;-42
2024/01/27 10:50:00;;;;;;;34.55;7.28;;;7.20;99.90;;;;;;5079577;28;20308;-42
2024/01/27 10:52:32;;;;;;;34.25;7.53;;;7.30;99.90;;;;;;5079178;28;20209;-37
2024/01/27 10:55:06;;;;;;;27.00;7.00;;;7.30;99.90;;;;;;5080079;28;20222;-45
2024/01/27 10:57:33;;;;;;;30.33;7.60;;;7.30;99.90;;;;;;5080151;28;20192;-40
2024/01/27 11:00:03;;;;;;;31.65;7.90;;;7.40;99.90;;;;;;5079632;28;20313;-40
2024/01/27 11:02:34;;;;;;;27.00;7.05;;;7.40;99.90;;;;;;5080351;28;20201;-42
2024/01/27 11:05:03;;;;;;;23.70;7.22;;;7.40;99.90;;;;;;5079977;28;20585;-45
2024/01/27 11:07:34;;;;;;;33.95;8.15;;;7.50;99.90;;;;;;5078307;28;20589;-40
2024/01/27 11:10:00;;;;;;;29.70;7.10;;;7.50;99.90;;;;;;5080241;28;20205;-42
2024/01/27 11:12:27;;;;;;;34.38;7.40;;;7.60;99.90;;;;;;5080495;28;20740;-46
2024/01/27 11:14:53;;;;;;;30.27;7.38;;;7.60;99.90;;;;;;5079668;28;20274;-45
2024/01/27 11:17:20;;;;;;;28.17;7.38;;;7.70;99.90;;;;;;5078873;28;20223;-43
2024/01/27 11:19:46;;;;;;;22.77;7.40;;;7.70;99.90;;;;;;5080029;28;20192;-44
2024/01/27 11:22:26;;;;;;;31.10;7.18;;;7.80;99.90;;;;;;5078525;28;20917;-45
2024/01/27 11:25:04;;;;;;;32.55;7.80;;;7.80;99.90;;;;;;5079211;28;20257;-44
2024/01/27 11:27:30;;;;;;;23.52;6.85;;;7.80;99.90;;;;;;5079942;28;20230;-40
2024/01/27 11:29:56;;;;;;;29.75;6.40;;;7.80;99.90;;;;;;5078419;28;20368;-38
2024/01/27 11:32:22;;;;;;;30.92;6.78;;;7.90;99.90;;;;;;5079953;28;20186;-41
2024/01/27 11:34:48;;;;;;;26.13;6.63;;;7.90;99.90;;;;;;5079529;28;20190;-43
2024/01/27 11:37:16;;;;;;;30.52;6.78;;;8.00;99.90;;;;;;5079668;28;20210;-40
2024/01/27 11:39:43;;;;;;;24.50;7.28;;;8.10;99.90;;;;;;5079419;28;20245;-42
2024/01/27 11:42:12;;;;;;;25.55;6.25;;;8.10;99.90;;;;;;5080341;28;20277;-44
2024/01/27 11:44:42;;;;;;;28.10;6.68;;;8.10;99.90;;;;;;5079972;28;20189;-46
2024/01/27 11:47:16;;;;;;;27.88;6.63;;;8.20;99.90;;;;;;5060483;28;20208;-40
2024/01/27 11:49:43;;;;;;;27.10;6.30;;;8.20;99.90;;;;;;5061220;28;20362;-45
2024/01/27 11:52:08;;;;;;;27.50;6.00;;;8.30;99.90;;;;;;5079047;28;20614;-41
2024/01/27 11:54:36;;;;;;;23.17;6.30;;;8.40;99.90;;;;;;5080071;28;20301;-40
2024/01/27 11:57:01;;;;;;;23.08;6.30;;;8.40;99.90;;;;;;5062438;28;20282;-39
2024/01/27 11:59:27;;;;;;;26.60;6.18;;;8.40;99.90;;;;;;5079831;28;20217;-44
2024/01/27 12:01:53;;;;;;;24.30;5.85;;;8.50;99.90;;;;;;5078758;28;20707;-47
2024/01/27 12:04:21;;;;;;;30.90;5.63;;;8.50;99.90;;;;;;5077989;28;20214;-40
2024/01/27 12:06:47;;;;;;;24.77;5.65;;;8.60;99.90;;;;;;5079935;28;20182;-43
2024/01/27 12:09:13;;;;;;;23.38;5.38;;;8.70;99.90;;;;;;5079539;28;20669;-44
2024/01/27 12:11:42;;;;;;;22.67;4.93;;;8.70;99.90;;;;;;5077329;28;20209;-41
2024/01/27 12:14:08;;;;;;;26.33;5.68;;;8.80;99.90;;;;;;5082660;28;20518;-45
2024/01/27 12:16:34;;;;;;;21.98;4.63;;;8.80;99.90;;;;;;5081070;28;20181;-39
2024/01/27 12:19:00;;;;;;;23.55;5.30;;;8.90;99.90;;;;;;5082623;28;20634;-42
2024/01/27 12:21:26;;;;;;;18.42;4.88;;;8.90;99.90;;;;;;5081503;28;20258;-43
2024/01/27 12:23:57;;;;;;;25.52;4.88;;;9.00;99.90;;;;;;5084050;28;21104;-44
2024/01/27 12:26:26;;;;;;;26.75;5.15;;;9.00;99.90;;;;;;5083795;28;20321;-42
2024/01/27 12:28:55;;;;;;;23.52;5.22;;;9.00;99.90;;;;;;5082929;28;20194;-43
2024/01/27 12:31:23;;;;;;;19.05;3.85;;;9.10;99.90;;;;;;5081846;28;20213;-37
2024/01/27 12:33:50;;;;;;;21.25;4.32;;;9.20;99.90;;;;;;5083231;28;20844;-41
2024/01/27 12:36:19;;;;;;;30.45;5.32;;;9.20;99.90;;;;;;5082477;28;20174;-45
2024/01/27 12:38:57;;;;;;;33.00;5.55;;;9.20;99.90;;;;;;5081871;28;20793;-41
2024/01/27 12:41:24;;;;;;;24.63;4.78;;;9.30;99.90;;;;;;5082779;28;20909;-44
2024/01/27 12:43:50;;;;;;;17.65;4.18;;;9.20;99.90;;;;;;5069887;28;20277;-43
2024/01/27 12:46:16;;;;;;;28.23;4.72;;;9.20;99.90;;;;;;5083368;28;20285;-46